sensor_id;sensor_type;location;lat;lon;timestamp;temperature;humidity
20512;DHT22;10414;52.074;5.126;2023-04-05T00:01:55;5.20;99.90
20512;DHT22;10414;52.074;5.126;2023-04-05T00:04:23;5.20;99.90
20512;DHT22;10414;52.074;5.126;2023-04-05T00:06:50;5.20;99.90
20512;DHT22;10414;52.074;5.126;2023-04-05T00:09:18;5.10;99.90
20512;DHT22;10414;52.074;5.126;2023-04-05T00:11:45;5.20;99.90
20512;DHT22;10414;52.074;5.126;2023-04-05T00:14:14;5.10;99.90
20512;DHT22;10414;52.074;5.126;2023-04-05T00:16:41;5.00;99.90
20512;DHT22;10414;52.074;5.126;2023-04-05T00:19:08;4.80;99.90
20512;DHT22;10414;52.074;5.126;2023-04-05T00:21:38;4.90;99.90
20512;DHT22;10414;52.074;5.126;2023-04-05T00:24:05;5.10;99.90
20512;DHT22;10414;52.074;5.126;2023-04-05T00:26:34;5.10;99.90
20512;DHT22;10414;52.074;5.126;2023-04-05T00:29:01;5.00;99.90
20512;DHT22;10414;52.074;5.126;2023-04-05T00:31:29;5.20;99.90
20512;DHT22;10414;52.074;5.126;2023-04-05T00:33:56;5.20;99.90
20512;DHT22;10414;52.074;5.126;2023-04-05T00:36:23;5.10;99.90
20512;DHT22;10414;52.074;5.126;2023-04-05T00:38:50;4.90;99.90
20512;DHT22;10414;52.074;5.126;2023-04-05T00:41:17;4.90;99.90
20512;DHT22;10414;52.074;5.126;2023-04-05T00:43:44;5.10;99.90
20512;DHT22;10414;52.074;5.126;2023-04-05T00:46:11;4.80;99.90
20512;DHT22;10414;52.074;5.126;2023-04-05T00:48:39;4.70;99.90
20512;DHT22;10414;52.074;5.126;2023-04-05T00:51:06;4.40;99.90
20512;DHT22;10414;52.074;5.126;2023-04-05T00:53:36;4.50;99.90
20512;DHT22;10414;52.074;5.126;2023-04-05T00:56:03;4.60;99.90
20512;DHT22;10414;52.074;5.126;2023-04-05T00:58:30;4.80;99.90
20512;DHT22;10414;52.074;5.126;2023-04-05T01:01:02;4.70;99.90
20512;DHT22;10414;52.074;5.126;2023-04-05T01:03:31;4.80;99.90
20512;DHT22;10414;52.074;5.126;2023-04-05T01:06:09;5.00;99.90
20512;DHT22;10414;52.074;5.126;2023-04-05T01:08:44;4.90;99.90
20512;DHT22;10414;52.074;5.126;2023-04-05T01:11:15;4.70;99.90
20512;DHT22;10414;52.074;5.126;2023-04-05T01:13:44;4.90;99.90
20512;DHT22;10414;52.074;5.126;2023-04-05T01:16:11;5.00;99.90
20512;DHT22;10414;52.074;5.126;2023-04-05T01:18:38;4.60;99.90
20512;DHT22;10414;52.074;5.126;2023-04-05T01:21:23;4.70;99.90
20512;DHT22;10414;52.074;5.126;2023-04-05T01:24:09;4.80;99.90
20512;DHT22;10414;52.074;5.126;2023-04-05T01:26:55;4.90;99.90
20512;DHT22;10414;52.074;5.126;2023-04-05T01:29:44;5.00;99.90
20512;DHT22;10414;52.074;5.126;2023-04-05T01:32:20;4.80;99.90
20512;DHT22;10414;52.074;5.126;2023-04-05T01:34:51;4.60;99.90
20512;DHT22;10414;52.074;5.126;2023-04-05T01:37:23;4.70;99.90
20512;DHT22;10414;52.074;5.126;2023-04-05T01:39:52;4.70;99.90
20512;DHT22;10414;52.074;5.126;2023-04-05T01:42:22;4.60;99.90
20512;DHT22;10414;52.074;5.126;2023-04-05T01:44:53;4.70;99.90
20512;DHT22;10414;52.074;5.126;2023-04-05T01:47:20;4.70;99.90
20512;DHT22;10414;52.074;5.126;2023-04-05T01:49:47;4.70;99.90
20512;DHT22;10414;52.074;5.126;2023-04-05T01:52:14;4.50;99.90
20512;DHT22;10414;52.074;5.126;2023-04-05T01:54:41;4.50;99.90
20512;DHT22;10414;52.074;5.126;2023-04-05T01:57:08;4.40;99.90
20512;DHT22;10414;52.074;5.126;2023-04-05T01:59:35;4.40;99.90
20512;DHT22;10414;52.074;5.126;2023-04-05T02:02:04;4.40;99.90
20512;DHT22;10414;52.074;5.126;2023-04-05T02:04:31;4.40;99.90
20512;DHT22;10414;52.074;5.126;2023-04-05T02:06:57;4.30;99.90
20512;DHT22;10414;52.074;5.126;2023-04-05T02:09:25;4.30;99.90
20512;DHT22;10414;52.074;5.126;2023-04-05T02:11:52;4.00;99.90
20512;DHT22;10414;52.074;5.126;2023-04-05T02:14:19;4.00;99.90
20512;DHT22;10414;52.074;5.126;2023-04-05T02:16:45;3.90;99.90
20512;DHT22;10414;52.074;5.126;2023-04-05T02:19:14;3.90;99.90
20512;DHT22;10414;52.074;5.126;2023-04-05T02:21:47;3.70;99.90
20512;DHT22;10414;52.074;5.126;2023-04-05T02:24:15;4.00;99.90
20512;DHT22;10414;52.074;5.126;2023-04-05T02:26:41;4.00;99.90
20512;DHT22;10414;52.074;5.126;2023-04-05T02:29:08;3.90;99.90
20512;DHT22;10414;52.074;5.126;2023-04-05T02:31:35;3.40;99.90
20512;DHT22;10414;52.074;5.126;2023-04-05T02:34:02;3.40;99.90
20512;DHT22;10414;52.074;5.126;2023-04-05T02:36:31;3.60;99.90
20512;DHT22;10414;52.074;5.126;2023-04-05T02:38:59;3.70;99.90
20512;DHT22;10414;52.074;5.126;2023-04-05T02:41:26;3.60;99.90
20512;DHT22;10414;52.074;5.126;2023-04-05T02:43:52;3.60;99.90
20512;DHT22;10414;52.074;5.126;2023-04-05T02:46:19;3.60;99.90
20512;DHT22;10414;52.074;5.126;2023-04-05T02:48:46;3.60;99.90
20512;DHT22;10414;52.074;5.126;2023-04-05T02:51:13;3.40;99.90
20512;DHT22;10414;52.074;5.126;2023-04-05T02:53:42;3.40;99.90
20512;DHT22;10414;52.074;5.126;2023-04-05T02:56:10;3.40;99.90
20512;DHT22;10414;52.074;5.126;2023-04-05T02:58:38;3.50;99.90
20512;DHT22;10414;52.074;5.126;2023-04-05T03:01:05;3.40;99.90
20512;DHT22;10414;52.074;5.126;2023-04-05T03:03:33;3.20;99.90
20512;DHT22;10414;52.074;5.126;2023-04-05T03:06:01;3.20;99.90
20512;DHT22;10414;52.074;5.126;2023-04-05T03:08:34;3.30;99.90
20512;DHT22;10414;52.074;5.126;2023-04-05T03:11:03;3.30;99.90
20512;DHT22;10414;52.074;5.126;2023-04-05T03:13:30;3.30;99.90
20512;DHT22;10414;52.074;5.126;2023-04-05T03:15:57;3.40;99.90
20512;DHT22;10414;52.074;5.126;2023-04-05T03:18:24;3.50;99.90
20512;DHT22;10414;52.074;5.126;2023-04-05T03:20:52;3.30;99.90
20512;DHT22;10414;52.074;5.126;2023-04-05T03:23:21;3.40;99.90
20512;DHT22;10414;52.074;5.126;2023-04-05T03:25:53;3.40;99.90
20512;DHT22;10414;52.074;5.126;2023-04-05T03:28:22;3.50;99.90
20512;DHT22;10414;52.074;5.126;2023-04-05T03:30:49;3.40;99.90
20512;DHT22;10414;52.074;5.126;2023-04-05T03:33:16;3.20;99.90
20512;DHT22;10414;52.074;5.126;2023-04-05T03:35:43;3.10;99.90
20512;DHT22;10414;52.074;5.126;2023-04-05T03:38:10;3.10;99.90
20512;DHT22;10414;52.074;5.126;2023-04-05T03:40:38;3.00;99.90
20512;DHT22;10414;52.074;5.126;2023-04-05T03:43:05;2.90;99.90
20512;DHT22;10414;52.074;5.126;2023-04-05T03:45:33;3.10;99.90
20512;DHT22;10414;52.074;5.126;2023-04-05T03:48:00;3.10;99.90
20512;DHT22;10414;52.074;5.126;2023-04-05T03:50:27;2.90;99.90
20512;DHT22;10414;52.074;5.126;2023-04-05T03:52:54;3.00;99.90
20512;DHT22;10414;52.074;5.126;2023-04-05T03:55:21;2.90;99.90
20512;DHT22;10414;52.074;5.126;2023-04-05T03:57:48;2.80;99.90
20512;DHT22;10414;52.074;5.126;2023-04-05T04:00:15;2.70;99.90
20512;DHT22;10414;52.074;5.126;2023-04-05T04:02:44;2.70;99.90
20512;DHT22;10414;52.074;5.126;2023-04-05T04:05:13;2.70;99.90
20512;DHT22;10414;52.074;5.126;2023-04-05T04:07:41;2.80;99.90
20512;DHT22;10414;52.074;5.126;2023-04-05T04:10:09;2.70;99.90
20512;DHT22;10414;52.074;5.126;2023-04-05T04:12:36;2.90;99.90
20512;DHT22;10414;52.074;5.126;2023-04-05T04:15:04;2.70;99.90
20512;DHT22;10414;52.074;5.126;2023-04-05T04:17:33;2.60;99.90
20512;DHT22;10414;52.074;5.126;2023-04-05T04:20:02;2.90;99.90
20512;DHT22;10414;52.074;5.126;2023-04-05T04:22:32;3.10;99.90
20512;DHT22;10414;52.074;5.126;2023-04-05T04:25:03;3.00;99.90
20512;DHT22;10414;52.074;5.126;2023-04-05T04:27:30;2.70;99.90
20512;DHT22;10414;52.074;5.126;2023-04-05T04:29:57;2.90;99.90
20512;DHT22;10414;52.074;5.126;2023-04-05T04:32:27;3.10;99.90
20512;DHT22;10414;52.074;5.126;2023-04-05T04:35:14;3.00;99.90
20512;DHT22;10414;52.074;5.126;2023-04-05T04:37:43;3.00;99.90
20512;DHT22;10414;52.074;5.126;2023-04-05T04:40:11;3.10;99.90
20512;DHT22;10414;52.074;5.126;2023-04-05T04:42:41;3.10;99.90
20512;DHT22;10414;52.074;5.126;2023-04-05T04:45:11;3.20;99.90
20512;DHT22;10414;52.074;5.126;2023-04-05T04:47:41;3.20;99.90
20512;DHT22;10414;52.074;5.126;2023-04-05T04:50:08;3.00;99.90
20512;DHT22;10414;52.074;5.126;2023-04-05T04:52:37;2.80;99.90
20512;DHT22;10414;52.074;5.126;2023-04-05T04:55:05;2.70;99.90
20512;DHT22;10414;52.074;5.126;2023-04-05T04:57:32;2.90;99.90
20512;DHT22;10414;52.074;5.126;2023-04-05T04:59:59;3.00;99.90
20512;DHT22;10414;52.074;5.126;2023-04-05T05:02:27;3.10;99.90
20512;DHT22;10414;52.074;5.126;2023-04-05T05:04:54;3.00;99.90
20512;DHT22;10414;52.074;5.126;2023-04-05T05:07:21;2.90;99.90
20512;DHT22;10414;52.074;5.126;2023-04-05T05:09:49;3.00;99.90
20512;DHT22;10414;52.074;5.126;2023-04-05T05:12:18;3.00;99.90
20512;DHT22;10414;52.074;5.126;2023-04-05T05:14:45;3.00;99.90
20512;DHT22;10414;52.074;5.126;2023-04-05T05:17:12;3.20;99.90
20512;DHT22;10414;52.074;5.126;2023-04-05T05:19:38;3.10;99.90
20512;DHT22;10414;52.074;5.126;2023-04-05T05:22:05;3.10;99.90
20512;DHT22;10414;52.074;5.126;2023-04-05T05:24:32;3.10;99.90
20512;DHT22;10414;52.074;5.126;2023-04-05T05:27:00;3.20;99.90
20512;DHT22;10414;52.074;5.126;2023-04-05T05:29:27;3.20;99.90
20512;DHT22;10414;52.074;5.126;2023-04-05T05:31:54;3.30;99.90
20512;DHT22;10414;52.074;5.126;2023-04-05T05:34:21;3.30;99.90
20512;DHT22;10414;52.074;5.126;2023-04-05T05:36:49;3.30;99.90
20512;DHT22;10414;52.074;5.126;2023-04-05T05:39:16;3.50;99.90
20512;DHT22;10414;52.074;5.126;2023-04-05T05:41:45;3.60;99.90
20512;DHT22;10414;52.074;5.126;2023-04-05T05:44:13;3.70;99.90
20512;DHT22;10414;52.074;5.126;2023-04-05T05:46:40;3.80;99.90
20512;DHT22;10414;52.074;5.126;2023-04-05T05:49:07;3.90;99.90
20512;DHT22;10414;52.074;5.126;2023-04-05T05:51:34;3.90;99.90
20512;DHT22;10414;52.074;5.126;2023-04-05T05:54:01;3.90;99.90
20512;DHT22;10414;52.074;5.126;2023-04-05T05:56:28;3.80;99.90
20512;DHT22;10414;52.074;5.126;2023-04-05T05:58:55;3.90;99.90
20512;DHT22;10414;52.074;5.126;2023-04-05T06:01:25;4.60;99.90
20512;DHT22;10414;52.074;5.126;2023-04-05T06:03:53;5.90;99.90
20512;DHT22;10414;52.074;5.126;2023-04-05T06:06:21;7.90;99.90
20512;DHT22;10414;52.074;5.126;2023-04-05T06:08:48;10.10;99.90
20512;DHT22;10414;52.074;5.126;2023-04-05T06:11:17;12.20;99.90
20512;DHT22;10414;52.074;5.126;2023-04-05T06:13:43;14.00;99.90
20512;DHT22;10414;52.074;5.126;2023-04-05T06:16:10;15.30;97.90
20512;DHT22;10414;52.074;5.126;2023-04-05T06:18:39;15.70;93.70
20512;DHT22;10414;52.074;5.126;2023-04-05T06:21:05;15.20;92.00
20512;DHT22;10414;52.074;5.126;2023-04-05T06:23:32;14.00;93.00
20512;DHT22;10414;52.074;5.126;2023-04-05T06:25:59;15.30;91.20
20512;DHT22;10414;52.074;5.126;2023-04-05T06:28:26;14.90;89.90
20512;DHT22;10414;52.074;5.126;2023-04-05T06:30:54;14.80;90.20
20512;DHT22;10414;52.074;5.126;2023-04-05T06:33:21;13.20;92.10
20512;DHT22;10414;52.074;5.126;2023-04-05T06:35:49;13.80;92.80
20512;DHT22;10414;52.074;5.126;2023-04-05T06:38:16;15.90;88.50
20512;DHT22;10414;52.074;5.126;2023-04-05T06:40:43;16.20;87.60
20512;DHT22;10414;52.074;5.126;2023-04-05T06:43:10;17.00;85.10
20512;DHT22;10414;52.074;5.126;2023-04-05T06:45:37;19.70;78.50
20512;DHT22;10414;52.074;5.126;2023-04-05T06:48:04;20.90;72.50
20512;DHT22;10414;52.074;5.126;2023-04-05T06:50:32;22.00;68.40
20512;DHT22;10414;52.074;5.126;2023-04-05T06:53:01;18.10;70.40
20512;DHT22;10414;52.074;5.126;2023-04-05T06:55:28;18.40;70.40
20512;DHT22;10414;52.074;5.126;2023-04-05T06:57:55;16.40;72.90
20512;DHT22;10414;52.074;5.126;2023-04-05T07:00:22;15.60;77.00
20512;DHT22;10414;52.074;5.126;2023-04-05T07:02:49;18.10;73.00
20512;DHT22;10414;52.074;5.126;2023-04-05T07:05:16;18.00;71.40
20512;DHT22;10414;52.074;5.126;2023-04-05T07:07:43;19.40;70.40
20512;DHT22;10414;52.074;5.126;2023-04-05T07:10:14;20.80;66.60
20512;DHT22;10414;52.074;5.126;2023-04-05T07:12:41;17.00;71.00
20512;DHT22;10414;52.074;5.126;2023-04-05T07:15:09;15.60;74.10
20512;DHT22;10414;52.074;5.126;2023-04-05T07:17:35;14.60;75.70
20512;DHT22;10414;52.074;5.126;2023-04-05T07:20:02;14.70;76.90
20512;DHT22;10414;52.074;5.126;2023-04-05T07:22:32;15.00;77.10
20512;DHT22;10414;52.074;5.126;2023-04-05T07:24:59;15.60;77.30
20512;DHT22;10414;52.074;5.126;2023-04-05T07:27:28;15.90;74.60
20512;DHT22;10414;52.074;5.126;2023-04-05T07:29:55;16.20;74.80
20512;DHT22;10414;52.074;5.126;2023-04-05T07:32:22;16.50;74.10
20512;DHT22;10414;52.074;5.126;2023-04-05T07:34:49;19.10;70.60
20512;DHT22;10414;52.074;5.126;2023-04-05T07:37:16;21.10;65.40
20512;DHT22;10414;52.074;5.126;2023-04-05T07:39:42;21.90;64.90
20512;DHT22;10414;52.074;5.126;2023-04-05T07:42:09;21.50;64.40
20512;DHT22;10414;52.074;5.126;2023-04-05T07:44:37;21.60;64.10
20512;DHT22;10414;52.074;5.126;2023-04-05T07:47:04;22.50;63.60
20512;DHT22;10414;52.074;5.126;2023-04-05T07:49:31;22.60;62.20
20512;DHT22;10414;52.074;5.126;2023-04-05T07:51:58;23.20;60.70
20512;DHT22;10414;52.074;5.126;2023-04-05T07:54:25;24.70;58.40
20512;DHT22;10414;52.074;5.126;2023-04-05T07:56:52;24.00;59.00
20512;DHT22;10414;52.074;5.126;2023-04-05T07:59:20;25.30;57.60
20512;DHT22;10414;52.074;5.126;2023-04-05T08:01:48;24.70;56.30
20512;DHT22;10414;52.074;5.126;2023-04-05T08:04:15;24.80;56.60
20512;DHT22;10414;52.074;5.126;2023-04-05T08:06:43;26.90;55.00
20512;DHT22;10414;52.074;5.126;2023-04-05T08:09:09;24.80;56.00
20512;DHT22;10414;52.074;5.126;2023-04-05T08:11:36;26.70;54.30
20512;DHT22;10414;52.074;5.126;2023-04-05T08:14:03;26.50;53.10
20512;DHT22;10414;52.074;5.126;2023-04-05T08:16:30;26.90;53.50
20512;DHT22;10414;52.074;5.126;2023-04-05T08:18:59;27.50;52.60
20512;DHT22;10414;52.074;5.126;2023-04-05T08:21:26;28.50;50.50
20512;DHT22;10414;52.074;5.126;2023-04-05T08:23:53;26.00;50.70
20512;DHT22;10414;52.074;5.126;2023-04-05T08:26:20;26.20;52.10
20512;DHT22;10414;52.074;5.126;2023-04-05T08:28:47;27.30;51.70
20512;DHT22;10414;52.074;5.126;2023-04-05T08:31:14;29.10;50.30
20512;DHT22;10414;52.074;5.126;2023-04-05T08:33:40;29.50;49.90
20512;DHT22;10414;52.074;5.126;2023-04-05T08:36:09;30.40;48.10
20512;DHT22;10414;52.074;5.126;2023-04-05T08:38:36;27.80;49.40
20512;DHT22;10414;52.074;5.126;2023-04-05T08:41:07;22.00;53.20
20512;DHT22;10414;52.074;5.126;2023-04-05T08:43:40;23.30;53.80
20512;DHT22;10414;52.074;5.126;2023-04-05T08:46:14;25.80;51.70
20512;DHT22;10414;52.074;5.126;2023-04-05T08:48:42;27.00;48.30
20512;DHT22;10414;52.074;5.126;2023-04-05T08:51:10;27.90;47.30
20512;DHT22;10414;52.074;5.126;2023-04-05T08:53:37;25.60;45.70
20512;DHT22;10414;52.074;5.126;2023-04-05T08:56:05;24.70;47.30
20512;DHT22;10414;52.074;5.126;2023-04-05T08:58:33;23.00;49.20
20512;DHT22;10414;52.074;5.126;2023-04-05T09:01:03;21.80;49.40
20512;DHT22;10414;52.074;5.126;2023-04-05T09:03:35;22.30;51.20
20512;DHT22;10414;52.074;5.126;2023-04-05T09:06:04;21.00;49.90
20512;DHT22;10414;52.074;5.126;2023-04-05T09:08:34;19.40;52.50
20512;DHT22;10414;52.074;5.126;2023-04-05T09:11:01;19.00;52.40
20512;DHT22;10414;52.074;5.126;2023-04-05T09:13:28;19.10;52.00
20512;DHT22;10414;52.074;5.126;2023-04-05T09:15:56;18.50;52.20
20512;DHT22;10414;52.074;5.126;2023-04-05T09:18:23;17.60;53.10
20512;DHT22;10414;52.074;5.126;2023-04-05T09:20:50;20.40;51.60
20512;DHT22;10414;52.074;5.126;2023-04-05T09:23:21;18.80;51.80
20512;DHT22;10414;52.074;5.126;2023-04-05T09:25:49;20.80;50.90
20512;DHT22;10414;52.074;5.126;2023-04-05T09:28:17;21.40;49.60
20512;DHT22;10414;52.074;5.126;2023-04-05T09:30:45;21.70;49.00
20512;DHT22;10414;52.074;5.126;2023-04-05T09:33:17;21.80;49.70
20512;DHT22;10414;52.074;5.126;2023-04-05T09:35:48;22.80;49.80
20512;DHT22;10414;52.074;5.126;2023-04-05T09:38:15;22.80;49.60
20512;DHT22;10414;52.074;5.126;2023-04-05T09:40:43;24.60;48.80
20512;DHT22;10414;52.074;5.126;2023-04-05T09:43:13;26.40;46.80
20512;DHT22;10414;52.074;5.126;2023-04-05T09:46:00;24.20;47.80
20512;DHT22;10414;52.074;5.126;2023-04-05T09:48:45;22.10;49.50
20512;DHT22;10414;52.074;5.126;2023-04-05T09:51:12;18.90;53.90
20512;DHT22;10414;52.074;5.126;2023-04-05T09:53:58;18.00;55.40
20512;DHT22;10414;52.074;5.126;2023-04-05T09:56:25;22.20;52.00
20512;DHT22;10414;52.074;5.126;2023-04-05T09:58:58;25.50;49.70
20512;DHT22;10414;52.074;5.126;2023-04-05T10:01:26;24.40;48.60
20512;DHT22;10414;52.074;5.126;2023-04-05T10:03:55;22.50;49.70
20512;DHT22;10414;52.074;5.126;2023-04-05T10:06:22;22.30;50.50
20512;DHT22;10414;52.074;5.126;2023-04-05T10:08:50;23.20;49.60
20512;DHT22;10414;52.074;5.126;2023-04-05T10:11:17;24.10;48.60
20512;DHT22;10414;52.074;5.126;2023-04-05T10:13:45;23.90;48.70
20512;DHT22;10414;52.074;5.126;2023-04-05T10:16:19;21.60;50.90
20512;DHT22;10414;52.074;5.126;2023-04-05T10:18:50;19.10;53.50
20512;DHT22;10414;52.074;5.126;2023-04-05T10:21:21;18.40;53.80
20512;DHT22;10414;52.074;5.126;2023-04-05T10:23:53;21.20;51.60
20512;DHT22;10414;52.074;5.126;2023-04-05T10:26:26;24.60;49.70
20512;DHT22;10414;52.074;5.126;2023-04-05T10:29:08;27.20;48.20
20512;DHT22;10414;52.074;5.126;2023-04-05T10:31:44;27.20;47.10
20512;DHT22;10414;52.074;5.126;2023-04-05T10:34:19;26.00;47.10
20512;DHT22;10414;52.074;5.126;2023-04-05T10:36:49;24.80;48.30
20512;DHT22;10414;52.074;5.126;2023-04-05T10:39:24;22.90;49.30
20512;DHT22;10414;52.074;5.126;2023-04-05T10:41:52;22.90;48.80
20512;DHT22;10414;52.074;5.126;2023-04-05T10:44:20;21.70;49.70
20512;DHT22;10414;52.074;5.126;2023-04-05T10:46:49;22.10;49.60
20512;DHT22;10414;52.074;5.126;2023-04-05T10:49:21;24.00;49.00
20512;DHT22;10414;52.074;5.126;2023-04-05T10:51:53;24.40;48.00
20512;DHT22;10414;52.074;5.126;2023-04-05T10:54:21;24.20;48.00
20512;DHT22;10414;52.074;5.126;2023-04-05T10:56:49;24.10;48.00
20512;DHT22;10414;52.074;5.126;2023-04-05T10:59:17;21.30;50.60
20512;DHT22;10414;52.074;5.126;2023-04-05T11:01:45;18.70;52.70
20512;DHT22;10414;52.074;5.126;2023-04-05T11:04:14;16.20;56.20
20512;DHT22;10414;52.074;5.126;2023-04-05T11:06:42;16.20;56.00
20512;DHT22;10414;52.074;5.126;2023-04-05T11:09:14;15.70;55.80
20512;DHT22;10414;52.074;5.126;2023-04-05T11:11:43;16.10;57.00
20512;DHT22;10414;52.074;5.126;2023-04-05T11:14:18;16.90;57.00
20512;DHT22;10414;52.074;5.126;2023-04-05T11:16:46;17.90;56.40
20512;DHT22;10414;52.074;5.126;2023-04-05T11:19:16;19.00;54.50
20512;DHT22;10414;52.074;5.126;2023-04-05T11:21:43;18.50;55.00
20512;DHT22;10414;52.074;5.126;2023-04-05T11:24:11;18.50;55.70
20512;DHT22;10414;52.074;5.126;2023-04-05T11:26:55;17.40;56.90
20512;DHT22;10414;52.074;5.126;2023-04-05T11:29:45;18.90;56.10
20512;DHT22;10414;52.074;5.126;2023-04-05T11:32:13;20.20;54.20
20512;DHT22;10414;52.074;5.126;2023-04-05T11:34:42;19.10;54.60
20512;DHT22;10414;52.074;5.126;2023-04-05T11:37:10;19.40;54.10
20512;DHT22;10414;52.074;5.126;2023-04-05T11:39:37;17.60;55.30
20512;DHT22;10414;52.074;5.126;2023-04-05T11:42:08;16.20;58.20
20512;DHT22;10414;52.074;5.126;2023-04-05T11:44:42;14.90;60.00
20512;DHT22;10414;52.074;5.126;2023-04-05T11:47:09;15.60;59.70
20512;DHT22;10414;52.074;5.126;2023-04-05T11:49:36;16.60;57.80
20512;DHT22;10414;52.074;5.126;2023-04-05T11:52:15;16.30;57.90
20512;DHT22;10414;52.074;5.126;2023-04-05T11:54:44;16.20;58.10
20512;DHT22;10414;52.074;5.126;2023-04-05T11:57:12;16.40;59.00
20512;DHT22;10414;52.074;5.126;2023-04-05T11:59:41;16.60;58.70
20512;DHT22;10414;52.074;5.126;2023-04-05T12:02:08;16.60;59.00
20512;DHT22;10414;52.074;5.126;2023-04-05T12:04:35;15.90;61.20
20512;DHT22;10414;52.074;5.126;2023-04-05T12:07:15;15.20;61.90
20512;DHT22;10414;52.074;5.126;2023-04-05T12:10:05;15.00;62.90
20512;DHT22;10414;52.074;5.126;2023-04-05T12:12:34;14.90;62.20
20512;DHT22;10414;52.074;5.126;2023-04-05T12:15:04;14.70;62.40
20512;DHT22;10414;52.074;5.126;2023-04-05T12:17:40;14.80;63.10
20512;DHT22;10414;52.074;5.126;2023-04-05T12:20:08;14.60;63.10
20512;DHT22;10414;52.074;5.126;2023-04-05T12:22:37;14.10;64.90
20512;DHT22;10414;52.074;5.126;2023-04-05T12:25:06;13.80;64.90
20512;DHT22;10414;52.074;5.126;2023-04-05T12:27:33;13.70;65.50
20512;DHT22;10414;52.074;5.126;2023-04-05T12:30:08;13.90;66.40
20512;DHT22;10414;52.074;5.126;2023-04-05T12:32:36;14.30;66.10
20512;DHT22;10414;52.074;5.126;2023-04-05T12:35:07;14.50;65.50
20512;DHT22;10414;52.074;5.126;2023-04-05T12:37:37;13.90;64.40
20512;DHT22;10414;52.074;5.126;2023-04-05T12:40:06;13.40;65.40
20512;DHT22;10414;52.074;5.126;2023-04-05T12:42:33;13.00;66.30
20512;DHT22;10414;52.074;5.126;2023-04-05T12:45:04;12.50;66.50
20512;DHT22;10414;52.074;5.126;2023-04-05T12:47:34;12.40;67.60
20512;DHT22;10414;52.074;5.126;2023-04-05T12:50:12;12.70;67.50
20512;DHT22;10414;52.074;5.126;2023-04-05T12:52:52;13.20;67.50
20512;DHT22;10414;52.074;5.126;2023-04-05T12:55:19;13.50;67.40
20512;DHT22;10414;52.074;5.126;2023-04-05T12:57:49;13.80;65.10
20512;DHT22;10414;52.074;5.126;2023-04-05T13:00:17;13.50;65.70
20512;DHT22;10414;52.074;5.126;2023-04-05T13:02:47;13.60;66.50
20512;DHT22;10414;52.074;5.126;2023-04-05T13:05:15;13.50;65.00
20512;DHT22;10414;52.074;5.126;2023-04-05T13:07:42;13.60;64.80
20512;DHT22;10414;52.074;5.126;2023-04-05T13:10:11;13.90;63.60
20512;DHT22;10414;52.074;5.126;2023-04-05T13:12:38;13.80;64.60
20512;DHT22;10414;52.074;5.126;2023-04-05T13:15:06;14.00;64.50
20512;DHT22;10414;52.074;5.126;2023-04-05T13:17:33;14.10;63.90
20512;DHT22;10414;52.074;5.126;2023-04-05T13:20:00;14.00;63.80
20512;DHT22;10414;52.074;5.126;2023-04-05T13:22:27;14.00;63.40
20512;DHT22;10414;52.074;5.126;2023-04-05T13:24:54;13.90;64.20
20512;DHT22;10414;52.074;5.126;2023-04-05T13:27:22;13.80;64.50
20512;DHT22;10414;52.074;5.126;2023-04-05T13:29:49;13.90;64.30
20512;DHT22;10414;52.074;5.126;2023-04-05T13:32:16;13.60;63.60
20512;DHT22;10414;52.074;5.126;2023-04-05T13:34:42;13.80;63.40
20512;DHT22;10414;52.074;5.126;2023-04-05T13:37:09;13.50;64.10
20512;DHT22;10414;52.074;5.126;2023-04-05T13:39:36;13.40;66.40
20512;DHT22;10414;52.074;5.126;2023-04-05T13:42:03;13.10;66.60
20512;DHT22;10414;52.074;5.126;2023-04-05T13:44:32;13.20;66.90
20512;DHT22;10414;52.074;5.126;2023-04-05T13:46:58;13.20;67.40
20512;DHT22;10414;52.074;5.126;2023-04-05T13:49:25;13.20;67.90
20512;DHT22;10414;52.074;5.126;2023-04-05T13:51:52;13.20;68.50
20512;DHT22;10414;52.074;5.126;2023-04-05T13:54:19;13.30;68.40
20512;DHT22;10414;52.074;5.126;2023-04-05T13:56:46;13.10;67.70
20512;DHT22;10414;52.074;5.126;2023-04-05T13:59:13;13.00;67.40
20512;DHT22;10414;52.074;5.126;2023-04-05T14:01:42;13.00;68.20
20512;DHT22;10414;52.074;5.126;2023-04-05T14:04:09;13.10;70.10
20512;DHT22;10414;52.074;5.126;2023-04-05T14:06:36;13.40;68.20
20512;DHT22;10414;52.074;5.126;2023-04-05T14:09:03;13.60;69.50
20512;DHT22;10414;52.074;5.126;2023-04-05T14:11:31;13.50;68.30
20512;DHT22;10414;52.074;5.126;2023-04-05T14:13:58;13.50;68.50
20512;DHT22;10414;52.074;5.126;2023-04-05T14:16:25;13.50;69.40
20512;DHT22;10414;52.074;5.126;2023-04-05T14:18:53;13.60;68.80
20512;DHT22;10414;52.074;5.126;2023-04-05T14:21:20;13.50;69.50
20512;DHT22;10414;52.074;5.126;2023-04-05T14:23:47;13.40;70.40
20512;DHT22;10414;52.074;5.126;2023-04-05T14:26:17;13.20;71.40
20512;DHT22;10414;52.074;5.126;2023-04-05T14:28:44;13.20;71.00
20512;DHT22;10414;52.074;5.126;2023-04-05T14:31:11;13.40;72.30
20512;DHT22;10414;52.074;5.126;2023-04-05T14:33:38;13.40;71.00
20512;DHT22;10414;52.074;5.126;2023-04-05T14:36:07;13.40;72.80
20512;DHT22;10414;52.074;5.126;2023-04-05T14:38:34;13.40;71.20
20512;DHT22;10414;52.074;5.126;2023-04-05T14:41:01;13.40;71.20
20512;DHT22;10414;52.074;5.126;2023-04-05T14:43:30;13.60;72.30
20512;DHT22;10414;52.074;5.126;2023-04-05T14:45:57;13.20;71.40
20512;DHT22;10414;52.074;5.126;2023-04-05T14:48:24;13.00;72.40
20512;DHT22;10414;52.074;5.126;2023-04-05T14:50:52;13.20;71.50
20512;DHT22;10414;52.074;5.126;2023-04-05T14:53:21;13.30;71.00
20512;DHT22;10414;52.074;5.126;2023-04-05T14:55:47;13.20;71.00
20512;DHT22;10414;52.074;5.126;2023-04-05T14:58:14;13.10;71.00
20512;DHT22;10414;52.074;5.126;2023-04-05T15:00:42;13.10;71.00
20512;DHT22;10414;52.074;5.126;2023-04-05T15:03:09;12.90;72.10
20512;DHT22;10414;52.074;5.126;2023-04-05T15:05:36;13.00;71.90
20512;DHT22;10414;52.074;5.126;2023-04-05T15:08:03;13.00;72.40
20512;DHT22;10414;52.074;5.126;2023-04-05T15:10:31;13.10;72.60
20512;DHT22;10414;52.074;5.126;2023-04-05T15:12:59;13.10;72.40
20512;DHT22;10414;52.074;5.126;2023-04-05T15:15:26;12.90;72.20
20512;DHT22;10414;52.074;5.126;2023-04-05T15:17:52;13.10;73.40
20512;DHT22;10414;52.074;5.126;2023-04-05T15:20:19;13.00;72.70
20512;DHT22;10414;52.074;5.126;2023-04-05T15:22:46;13.10;72.00
20512;DHT22;10414;52.074;5.126;2023-04-05T15:25:13;12.80;72.90
20512;DHT22;10414;52.074;5.126;2023-04-05T15:27:41;13.00;73.30
20512;DHT22;10414;52.074;5.126;2023-04-05T15:30:09;13.10;72.00
20512;DHT22;10414;52.074;5.126;2023-04-05T15:32:36;13.00;73.40
20512;DHT22;10414;52.074;5.126;2023-04-05T15:35:03;12.60;74.20
20512;DHT22;10414;52.074;5.126;2023-04-05T15:37:30;12.40;75.00
20512;DHT22;10414;52.074;5.126;2023-04-05T15:39:57;12.50;73.60
20512;DHT22;10414;52.074;5.126;2023-04-05T15:42:25;12.70;74.00
20512;DHT22;10414;52.074;5.126;2023-04-05T15:44:53;12.80;74.70
20512;DHT22;10414;52.074;5.126;2023-04-05T15:47:20;12.70;73.60